Time;durP1;ratioP1;P1;durP2;ratioP2;P2;SDS_P1;SDS_P2;PMS_P1;PMS_P2;Temp;Humidity;BMP_temperature;BMP_pressure;BME280_temperature;BME280_humidity;BME280_pressure;Samples;Min_cycle;Max_cycle;Signal;HPM_P1;HPM_P2
2021/11/02 00:00:12;;;;;;;7.35;1.38;;;9.30;99.90;;;;;;5062847;28;20082;-77
2021/11/02 00:02:43;;;;;;;6.18;1.17;;;9.30;99.90;;;;;;5064293;28;20088;-77
2021/11/02 00:05:09;;;;;;;5.10;1.42;;;9.20;99.90;;;;;;5064372;28;20044;-77
2021/11/02 00:07:34;;;;;;;2.60;0.90;;;9.20;99.90;;;;;;5063096;28;20029;-77
2021/11/02 00:10:02;;;;;;;1.67;0.85;;;9.20;99.90;;;;;;5063558;28;20029;-76
2021/11/02 00:12:28;;;;;;;3.13;1.27;;;9.20;99.90;;;;;;5062015;28;20060;-76
2021/11/02 00:14:54;;;;;;;2.65;1.13;;;9.10;99.90;;;;;;5064012;28;20466;-77
2021/11/02 00:17:28;;;;;;;1.45;0.82;;;9.10;99.90;;;;;;5063938;28;20029;-79
2021/11/02 00:19:59;;;;;;;3.17;0.90;;;9.00;99.90;;;;;;5062516;28;20041;-78
2021/11/02 00:22:27;;;;;;;2.70;1.20;;;9.10;99.90;;;;;;5063785;28;20024;-76
2021/11/02 00:27:24;;;;;;;3.95;1.10;;;8.90;99.90;;;;;;5065068;28;20052;-77
2021/11/02 00:29:49;;;;;;;3.72;1.33;;;8.90;99.90;;;;;;5067602;28;20021;-78
2021/11/02 00:32:16;;;;;;;2.15;0.98;;;8.80;99.90;;;;;;5066076;28;20024;-79
2021/11/02 00:34:42;;;;;;;17.70;1.80;;;8.80;99.90;;;;;;5066139;28;20025;-77
2021/11/02 00:37:08;;;;;;;1.52;1.05;;;8.80;99.90;;;;;;5067812;28;20039;-77
2021/11/02 00:39:34;;;;;;;4.95;1.90;;;8.70;99.90;;;;;;5067016;28;20045;-79
2021/11/02 00:42:00;;;;;;;7.90;1.77;;;8.70;99.90;;;;;;5066319;28;20021;-78
2021/11/02 00:44:26;;;;;;;11.43;2.50;;;8.70;99.90;;;;;;5066208;28;20097;-77
2021/11/02 00:46:52;;;;;;;5.97;1.60;;;8.70;99.90;;;;;;5066891;28;20025;-77
2021/11/02 00:49:21;;;;;;;5.70;1.40;;;8.60;99.90;;;;;;5066260;28;20021;-78
2021/11/02 00:51:48;;;;;;;3.72;1.20;;;8.60;99.90;;;;;;5065999;28;20029;-76
2021/11/02 00:54:14;;;;;;;2.08;1.25;;;8.60;99.90;;;;;;5066049;28;20029;-77
2021/11/02 00:56:40;;;;;;;3.22;1.27;;;8.60;99.90;;;;;;5067758;28;20029;-77
2021/11/02 00:59:06;;;;;;;5.95;1.40;;;8.50;99.90;;;;;;5065149;28;20045;-76
2021/11/02 01:01:32;;;;;;;2.13;1.02;;;8.50;99.90;;;;;;5065761;28;20055;-77
2021/11/02 01:03:58;;;;;;;6.45;1.70;;;8.50;99.90;;;;;;5066988;28;20025;-77
2021/11/02 01:06:25;;;;;;;3.50;1.55;;;8.40;99.90;;;;;;5067128;28;20029;-76
2021/11/02 01:08:51;;;;;;;4.68;1.60;;;8.40;99.90;;;;;;5065375;28;20029;-76
2021/11/02 01:11:18;;;;;;;2.33;1.38;;;8.30;99.90;;;;;;5067214;28;20053;-76
2021/11/02 01:13:43;;;;;;;3.30;1.58;;;8.30;99.90;;;;;;5065832;28;20025;-77
2021/11/02 01:16:09;;;;;;;1.25;0.93;;;8.20;99.90;;;;;;5066964;28;20052;-75
2021/11/02 01:18:35;;;;;;;3.95;1.58;;;8.20;99.90;;;;;;5065339;28;20037;-76
2021/11/02 01:21:02;;;;;;;3.80;1.60;;;8.10;99.90;;;;;;5065157;28;20036;-75
2021/11/02 01:23:28;;;;;;;9.70;1.83;;;8.10;99.90;;;;;;5066269;28;20021;-76
2021/11/02 01:25:53;;;;;;;3.70;1.33;;;8.00;99.90;;;;;;5065308;28;20025;-75
2021/11/02 01:28:19;;;;;;;2.70;1.17;;;8.00;99.90;;;;;;5065248;28;20045;-76
2021/11/02 01:30:45;;;;;;;3.55;1.05;;;8.00;99.90;;;;;;5065371;28;20021;-78
2021/11/02 01:33:11;;;;;;;3.03;1.33;;;8.00;99.90;;;;;;5066758;28;20111;-76
2021/11/02 01:35:37;;;;;;;6.72;1.65;;;8.00;99.90;;;;;;5066753;28;20025;-77
2021/11/02 01:38:06;;;;;;;6.20;1.40;;;7.90;99.90;;;;;;5064525;28;20048;-76
2021/11/02 01:40:32;;;;;;;2.70;1.45;;;7.90;99.90;;;;;;5064883;28;20504;-77
2021/11/02 01:42:58;;;;;;;3.08;1.60;;;7.80;99.90;;;;;;5065841;28;20025;-77
2021/11/02 01:45:27;;;;;;;1.98;1.10;;;7.80;99.90;;;;;;5064926;28;20047;-76
2021/11/02 01:47:53;;;;;;;1.70;1.10;;;7.80;99.90;;;;;;5066643;28;20107;-76
2021/11/02 01:50:19;;;;;;;6.35;1.30;;;7.80;99.90;;;;;;5065109;28;20086;-76
2021/11/02 01:52:45;;;;;;;7.22;1.60;;;7.70;99.90;;;;;;5065245;28;20078;-77
2021/11/02 01:55:13;;;;;;;5.55;1.15;;;7.80;99.90;;;;;;5066199;28;20060;-76
2021/11/02 01:57:40;;;;;;;2.75;1.35;;;7.70;99.90;;;;;;5064534;28;20031;-75
2021/11/02 02:00:10;;;;;;;2.63;1.42;;;7.60;99.90;;;;;;5066033;28;20037;-78
2021/11/02 02:02:38;;;;;;;1.85;0.93;;;7.60;99.90;;;;;;5065642;28;20029;-78
2021/11/02 02:05:41;;;;;;;2.80;1.35;;;7.60;99.90;;;;;;5065951;28;20045;-78
2021/11/02 02:08:29;;;;;;;5.53;1.67;;;7.50;99.90;;;;;;5064673;28;20028;-74
2021/11/02 02:11:09;;;;;;;2.75;1.20;;;7.50;99.90;;;;;;5064371;28;20021;-76
2021/11/02 02:13:50;;;;;;;8.43;1.48;;;7.60;99.90;;;;;;5065863;28;20028;-76
2021/11/02 02:16:37;;;;;;;2.70;1.33;;;7.60;99.90;;;;;;5064297;28;20148;-78
2021/11/02 02:19:36;;;;;;;1.55;0.75;;;7.60;99.90;;;;;;5064398;28;21015;-77
2021/11/02 02:22:08;;;;;;;2.65;1.67;;;7.60;99.90;;;;;;5032149;28;20041;-76
2021/11/02 02:24:55;;;;;;;4.93;1.50;;;7.60;99.90;;;;;;5064136;28;20056;-76
2021/11/02 02:27:44;;;;;;;3.60;1.73;;;7.60;99.90;;;;;;5063969;28;20041;-76
2021/11/02 02:30:15;;;;;;;3.17;1.52;;;7.60;99.90;;;;;;5066080;28;20044;-76
2021/11/02 02:32:45;;;;;;;4.32;1.35;;;7.50;99.90;;;;;;5064899;28;21212;-77
2021/11/02 02:35:14;;;;;;;6.72;2.47;;;7.50;99.90;;;;;;5065390;28;20071;-77
2021/11/02 02:37:43;;;;;;;0.82;0.82;;;7.40;99.90;;;;;;5065584;28;20044;-78
2021/11/02 02:40:10;;;;;;;4.63;2.05;;;7.40;99.90;;;;;;5065477;28;20032;-77
2021/11/02 02:42:37;;;;;;;6.22;1.20;;;7.30;99.90;;;;;;5064231;28;20037;-75
2021/11/02 02:45:04;;;;;;;1.95;1.00;;;7.20;99.90;;;;;;5065323;28;20021;-77
2021/11/02 02:47:31;;;;;;;1.88;1.42;;;7.20;99.90;;;;;;5063468;28;20056;-76
2021/11/02 02:49:58;;;;;;;4.13;1.33;;;7.10;99.90;;;;;;5062953;28;20029;-77
2021/11/02 02:52:27;;;;;;;3.42;1.55;;;7.10;99.90;;;;;;5063730;28;20021;-77
2021/11/02 02:54:55;;;;;;;2.70;1.58;;;7.00;99.90;;;;;;5064910;28;20092;-79
2021/11/02 02:57:25;;;;;;;5.55;2.08;;;7.00;99.90;;;;;;5063501;28;20028;-77
2021/11/02 02:59:51;;;;;;;1.73;1.13;;;7.00;99.90;;;;;;5063651;28;20033;-77
2021/11/02 03:02:22;;;;;;;3.35;1.17;;;7.00;99.90;;;;;;5064722;28;20032;-77
2021/11/02 03:04:51;;;;;;;7.78;1.08;;;6.90;99.90;;;;;;5064896;28;20025;-76
2021/11/02 03:07:17;;;;;;;2.92;1.95;;;6.90;99.90;;;;;;5064789;28;20021;-77
2021/11/02 03:09:44;;;;;;;2.65;1.15;;;6.90;99.90;;;;;;5063614;28;20075;-77
2021/11/02 03:12:13;;;;;;;4.55;1.10;;;6.90;99.90;;;;;;5063718;28;20025;-77
2021/11/02 03:15:07;;;;;;;2.70;1.30;;;6.80;99.90;;;;;;5064767;28;20496;-77
2021/11/02 03:17:46;;;;;;;3.75;1.92;;;6.80;99.90;;;;;;5064895;28;20075;-77
2021/11/02 03:45:17;;;;;;;5.07;1.48;;;6.40;99.90;;;;;;5064460;28;20044;-77
2021/11/02 03:56:01;;;;;;;2.28;1.50;;;6.30;99.90;;;;;;5064134;28;20040;-77
2021/11/02 03:58:46;;;;;;;2.85;1.27;;;6.30;99.90;;;;;;5062859;28;20037;-77
2021/11/02 04:01:41;;;;;;;2.33;1.20;;;6.30;99.90;;;;;;5064457;28;20024;-77
2021/11/02 04:22:37;;;;;;;;;;;6.20;99.90;;;;;;5068703;28;20028;-75
2021/11/02 04:57:55;;;;;;;3.08;1.63;;;6.00;99.90;;;;;;5067425;28;20051;-77
2021/11/02 05:53:54;;;;;;;4.65;2.08;;;5.70;99.90;;;;;;5066255;28;20027;-77
2021/11/02 05:56:38;;;;;;;7.25;2.05;;;5.70;99.90;;;;;;5064954;28;20025;-79
2021/11/02 06:02:28;;;;;;;3.53;1.88;;;5.60;99.90;;;;;;5042924;28;20509;-76
2021/11/02 06:05:14;;;;;;;3.17;1.98;;;5.70;99.90;;;;;;5064510;28;20025;-77
2021/11/02 06:28:00;;;;;;;9.38;2.72;;;5.70;99.90;;;;;;5065480;28;20059;-79
2021/11/02 06:30:33;;;;;;;6.18;2.20;;;5.70;99.90;;;;;;5064385;28;20036;-78
2021/11/02 06:36:00;;;;;;;6.13;2.25;;;5.70;99.90;;;;;;5045746;28;20036;-77
2021/11/02 06:46:53;;;;;;;5.88;2.45;;;5.70;99.90;;;;;;5049760;28;20068;-79
2021/11/02 07:23:05;;;;;;;4.53;1.90;;;5.60;99.90;;;;;;5070296;28;20028;-80
2021/11/02 08:47:41;;;;;;;4.55;2.60;;;8.90;99.90;;;;;;5054219;28;20084;-79
2021/11/02 08:50:10;;;;;;;3.83;2.30;;;9.10;99.90;;;;;;5059555;28;20029;-80
2021/11/02 08:52:36;;;;;;;9.02;2.95;;;9.20;99.90;;;;;;5055396;28;20044;-78
2021/11/02 08:55:06;;;;;;;6.28;2.97;;;9.30;99.90;;;;;;5058495;28;20060;-77
2021/11/02 08:57:33;;;;;;;9.63;2.85;;;9.30;99.90;;;;;;5064823;28;20036;-77
2021/11/02 09:00:00;;;;;;;9.25;2.92;;;9.30;99.90;;;;;;5062962;28;20037;-78
2021/11/02 09:02:35;;;;;;;5.43;2.05;;;9.30;99.90;;;;;;5047690;28;20489;-77
2021/11/02 09:05:14;;;;;;;7.95;2.35;;;9.40;99.90;;;;;;5054212;28;20029;-77
2021/11/02 09:07:49;;;;;;;7.03;2.53;;;9.40;99.90;;;;;;5059734;28;20517;-79
2021/11/02 09:10:17;;;;;;;7.45;2.55;;;9.40;99.90;;;;;;5067097;28;20029;-79
2021/11/02 09:12:51;;;;;;;3.58;2.08;;;9.50;99.90;;;;;;5063445;28;20446;-77
2021/11/02 09:15:28;;;;;;;;;;;9.50;99.90;;;;;;5061124;28;20097;-77
2021/11/02 09:17:55;;;;;;;5.10;2.72;;;9.60;99.90;;;;;;5046072;28;20381;-77
2021/11/02 09:20:23;;;;;;;8.73;2.95;;;9.60;99.90;;;;;;5046271;28;20030;-78
2021/11/02 09:22:49;;;;;;;7.38;2.55;;;9.70;99.90;;;;;;5046032;28;20025;-74
2021/11/02 09:25:19;;;;;;;7.03;2.75;;;9.70;99.90;;;;;;5047193;28;20026;-75
2021/11/02 09:27:48;;;;;;;5.82;3.13;;;9.80;99.90;;;;;;5046711;28;20053;-76
2021/11/02 09:30:20;;;;;;;4.20;2.70;;;9.90;99.90;;;;;;5051340;28;20029;-77
2021/11/02 09:32:49;;;;;;;8.88;3.42;;;10.00;99.90;;;;;;5067395;28;20159;-78
2021/11/02 09:35:19;;;;;;;9.95;3.85;;;10.10;99.90;;;;;;5061505;28;20021;-76
2021/11/02 09:38:06;;;;;;;5.35;2.40;;;10.20;99.90;;;;;;5053293;28;20064;-75
2021/11/02 09:40:54;;;;;;;6.93;3.33;;;10.40;99.90;;;;;;5059270;28;20132;-77
2021/11/02 09:43:22;;;;;;;6.05;3.17;;;10.40;99.90;;;;;;5064957;28;20029;-77
2021/11/02 09:46:06;;;;;;;8.25;3.70;;;10.50;99.90;;;;;;5060648;28;20116;-83
2021/11/02 09:48:53;;;;;;;17.42;4.18;;;10.70;99.90;;;;;;5063897;28;20463;-76
2021/11/02 09:51:46;;;;;;;12.18;4.95;;;11.00;99.90;;;;;;5068423;28;20032;-76
2021/11/02 09:54:33;;;;;;;7.65;3.67;;;11.20;99.90;;;;;;5046351;28;20021;-78
2021/11/02 09:57:35;;;;;;;13.95;5.65;;;11.50;99.90;;;;;;5057197;28;20034;-77
2021/11/02 10:00:09;;;;;;;12.93;4.50;;;11.70;99.90;;;;;;5062153;28;20052;-76
2021/11/02 10:02:50;;;;;;;9.75;4.18;;;11.80;99.90;;;;;;5079908;28;20044;-77
2021/11/02 10:05:53;;;;;;;13.85;4.93;;;11.70;99.90;;;;;;5061311;28;20039;-75
2021/11/02 10:09:08;;;;;;;10.05;4.57;;;11.60;99.90;;;;;;5061550;28;20101;-77
2021/11/02 10:12:11;;;;;;;9.27;4.18;;;11.60;99.90;;;;;;5050240;28;20095;-73
2021/11/02 10:15:02;;;;;;;11.65;4.50;;;11.50;99.90;;;;;;5045776;28;20087;-74
2021/11/02 10:17:40;;;;;;;18.92;5.38;;;11.50;99.90;;;;;;5047939;28;20024;-76
2021/11/02 10:20:32;;;;;;;7.65;3.65;;;11.40;99.90;;;;;;5075968;28;20090;-78
2021/11/02 10:23:08;;;;;;;9.20;4.50;;;11.40;99.90;;;;;;5064759;28;20029;-78
2021/11/02 10:26:17;;;;;;;8.15;4.30;;;11.50;99.90;;;;;;5065423;28;20029;-76
2021/11/02 10:29:20;;;;;;;10.02;4.75;;;11.60;99.90;;;;;;5044508;28;20049;-76
2021/11/02 10:31:58;;;;;;;16.20;5.70;;;11.80;99.90;;;;;;5050368;28;20116;-78
2021/11/02 10:34:32;;;;;;;13.25;5.10;;;11.80;99.90;;;;;;5045186;28;20049;-77
2021/11/02 10:37:07;;;;;;;;;;;11.90;99.90;;;;;;5047613;28;20493;-75
2021/11/02 10:39:39;;;;;;;8.35;4.93;;;11.90;99.90;;;;;;5061135;28;19980;-76
2021/11/02 10:42:29;;;;;;;9.43;4.20;;;12.10;99.90;;;;;;5047374;28;20065;-78
2021/11/02 10:45:00;;;;;;;10.30;5.43;;;12.30;99.90;;;;;;5062828;28;20029;-78
2021/11/02 10:48:05;;;;;;;8.60;4.82;;;12.60;99.90;;;;;;5064115;28;20047;-79
2021/11/02 10:50:37;;;;;;;9.55;4.53;;;13.00;99.90;;;;;;5061266;28;20372;-77
2021/11/02 10:53:07;;;;;;;10.48;5.10;;;13.50;99.90;;;;;;5063750;28;20126;-76
2021/11/02 10:55:34;;;;;;;10.93;4.05;;;14.00;99.90;;;;;;5063716;28;20024;-74
2021/11/02 10:58:28;;;;;;;20.90;5.50;;;14.20;99.90;;;;;;5064914;28;20021;-76
2021/11/02 11:00:54;;;;;;;7.88;3.05;;;14.20;99.90;;;;;;5063646;28;20054;-75
2021/11/02 11:03:28;;;;;;;9.13;4.35;;;14.30;99.90;;;;;;5065585;28;20080;-73
2021/11/02 11:06:04;;;;;;;;;;;14.30;99.90;;;;;;5066625;28;20021;-73
2021/11/02 11:08:39;;;;;;;16.98;3.53;;;14.30;99.90;;;;;;5065205;28;19964;-77
2021/11/02 11:11:09;;;;;;;8.70;3.90;;;14.20;99.90;;;;;;5062870;28;20039;-75
2021/11/02 11:13:37;;;;;;;6.00;2.97;;;14.30;99.90;;;;;;5063504;28;20699;-75
2021/11/02 11:16:20;;;;;;;8.20;2.45;;;14.40;99.90;;;;;;5065144;28;20092;-76
2021/11/02 11:18:49;;;;;;;15.43;3.05;;;14.70;99.90;;;;;;5064838;28;20033;-75
2021/11/02 11:21:17;;;;;;;6.35;2.97;;;15.20;99.90;;;;;;5063546;28;20450;-76
2021/11/02 11:23:48;;;;;;;6.03;2.55;;;15.60;99.90;;;;;;5052474;28;20025;-75
2021/11/02 11:26:16;;;;;;;8.57;2.97;;;15.90;99.90;;;;;;5046433;28;20029;-77
2021/11/02 11:28:45;;;;;;;7.70;2.80;;;16.20;99.90;;;;;;5065166;28;20055;-77
2021/11/02 11:31:16;;;;;;;8.07;2.75;;;16.50;99.90;;;;;;5063417;28;20049;-77
2021/11/02 11:33:43;;;;;;;6.20;3.05;;;16.80;99.90;;;;;;5064868;28;20064;-74
2021/11/02 11:36:08;;;;;;;6.05;2.50;;;16.80;99.90;;;;;;5057793;28;20026;-76
2021/11/02 11:38:40;;;;;;;4.47;2.35;;;16.70;99.90;;;;;;5057109;28;20098;-77
2021/11/02 11:41:19;;;;;;;11.90;2.60;;;16.50;99.90;;;;;;5084707;28;20024;-77
2021/11/02 11:44:12;;;;;;;6.80;3.05;;;16.40;99.90;;;;;;5083096;28;20028;-76
2021/11/02 11:46:39;;;;;;;5.30;2.85;;;16.10;99.90;;;;;;5082779;28;20028;-75
2021/11/02 11:49:06;;;;;;;8.57;2.53;;;15.80;99.90;;;;;;5084621;28;20032;-78
2021/11/02 11:51:32;;;;;;;7.20;2.30;;;15.60;99.90;;;;;;5082969;28;20102;-79
2021/11/02 11:54:06;;;;;;;5.70;2.83;;;15.50;99.90;;;;;;5054055;28;20022;-74
2021/11/02 11:56:33;;;;;;;6.95;2.58;;;15.30;99.90;;;;;;5043061;28;20026;-75
2021/11/02 11:59:01;;;;;;;7.93;2.03;;;15.30;99.90;;;;;;5057751;28;20045;-77
2021/11/02 12:02:07;;;;;;;17.27;3.05;;;15.30;99.90;;;;;;5062872;28;20509;-75
2021/11/02 12:04:50;;;;;;;6.72;2.67;;;15.20;99.90;;;;;;5046350;28;20041;-73
2021/11/02 12:07:32;;;;;;;9.98;3.10;;;15.10;99.90;;;;;;5063063;28;20111;-77
2021/11/02 12:10:07;;;;;;;9.73;2.03;;;15.10;99.90;;;;;;5064023;28;20100;-75
2021/11/02 12:12:35;;;;;;;4.22;2.10;;;15.10;99.90;;;;;;5064399;28;20032;-75
2021/11/02 12:15:10;;;;;;;6.75;2.97;;;15.20;99.90;;;;;;5062706;28;20543;-75
2021/11/02 12:17:44;;;;;;;4.22;2.42;;;15.30;99.90;;;;;;5064261;28;20036;-75
2021/11/02 12:20:16;;;;;;;4.53;2.83;;;15.00;99.90;;;;;;5062172;28;20052;-77
2021/11/02 12:22:58;;;;;;;6.18;2.00;;;14.80;99.90;;;;;;5066675;28;20029;-79
2021/11/02 12:25:29;;;;;;;5.25;2.35;;;14.60;99.90;;;;;;5067028;28;20036;-74
2021/11/02 12:27:56;;;;;;;5.13;2.60;;;14.70;99.90;;;;;;5066399;28;20068;-76
2021/11/02 12:30:23;;;;;;;8.27;3.20;;;14.90;99.90;;;;;;5098816;28;20035;-75
2021/11/02 12:32:56;;;;;;;9.38;2.95;;;15.30;99.90;;;;;;5080669;28;20115;-74
2021/11/02 12:35:58;;;;;;;6.18;2.72;;;15.40;99.90;;;;;;5087815;28;20029;-76
2021/11/02 12:38:33;;;;;;;8.40;3.17;;;15.60;99.90;;;;;;5031799;28;20052;-80
2021/11/02 12:40:59;;;;;;;4.53;2.65;;;15.90;99.90;;;;;;5087853;28;20043;-77
2021/11/02 12:43:30;;;;;;;6.68;2.55;;;15.80;99.90;;;;;;5086975;28;20074;-78
2021/11/02 12:46:04;;;;;;;6.72;3.30;;;16.10;99.90;;;;;;5087534;28;20112;-78
2021/11/02 12:48:31;;;;;;;6.72;2.47;;;16.50;99.90;;;;;;5086102;28;20088;-76
2021/11/02 12:50:57;;;;;;;5.90;2.92;;;16.80;99.90;;;;;;5086005;28;20039;-74
2021/11/02 12:53:23;;;;;;;7.93;2.55;;;16.80;99.90;;;;;;5087597;28;20029;-74
2021/11/02 12:55:50;;;;;;;9.13;2.28;;;16.40;99.90;;;;;;5087502;28;20036;-76
2021/11/02 12:58:19;;;;;;;3.83;2.50;;;16.10;99.90;;;;;;5086686;28;20029;-77
2021/11/02 13:00:52;;;;;;;5.97;2.65;;;16.10;99.90;;;;;;5086188;28;20021;-78
2021/11/02 13:03:27;;;;;;;8.07;2.60;;;16.10;99.90;;;;;;5086561;28;20024;-74
2021/11/02 13:05:58;;;;;;;6.43;2.65;;;16.20;99.90;;;;;;5087063;28;20024;-74
2021/11/02 13:08:30;;;;;;;3.25;1.98;;;16.30;99.90;;;;;;5087062;28;20104;-77
2021/11/02 13:11:08;;;;;;;8.18;3.05;;;16.60;99.90;;;;;;5087673;28;20046;-76
2021/11/02 13:14:13;;;;;;;3.92;2.65;;;16.80;99.90;;;;;;5088862;28;20032;-74
2021/11/02 13:17:03;;;;;;;5.78;3.60;;;16.80;99.90;;;;;;5086953;28;20066;-79
2021/11/02 13:19:35;;;;;;;6.40;3.40;;;16.70;99.90;;;;;;5085463;28;20040;-75
2021/11/02 13:22:15;;;;;;;6.65;3.58;;;16.90;99.90;;;;;;5086793;28;20029;-76
2021/11/02 13:25:03;;;;;;;5.55;3.42;;;17.00;99.90;;;;;;5085459;28;20416;-76
2021/11/02 13:27:43;;;;;;;7.25;3.17;;;17.20;99.90;;;;;;5086903;28;20048;-76
2021/11/02 13:30:34;;;;;;;7.68;4.40;;;17.00;99.90;;;;;;5083508;28;20021;-77
2021/11/02 13:33:02;;;;;;;6.68;3.60;;;16.30;99.90;;;;;;5057627;28;20034;-77
2021/11/02 13:35:44;;;;;;;6.85;4.25;;;15.70;99.90;;;;;;5065982;28;20021;-78
2021/11/02 13:38:20;;;;;;;9.98;5.00;;;15.00;99.90;;;;;;5065845;28;20052;-78
2021/11/02 13:40:49;;;;;;;7.55;4.40;;;14.60;99.90;;;;;;5066626;28;20033;-78
2021/11/02 13:43:45;;;;;;;8.20;4.90;;;14.20;99.90;;;;;;5066763;28;20048;-79
2021/11/02 13:46:16;;;;;;;13.30;5.85;;;13.90;99.90;;;;;;5044282;28;20409;-79
2021/11/02 13:48:44;;;;;;;11.23;6.03;;;13.60;99.90;;;;;;5066284;28;20049;-79
2021/11/02 13:51:16;;;;;;;9.98;5.30;;;13.40;99.90;;;;;;5065271;28;20032;-77
2021/11/02 13:53:44;;;;;;;17.30;6.72;;;13.20;99.90;;;;;;5065411;28;20086;-75
2021/11/02 13:56:24;;;;;;;14.43;7.60;;;13.10;99.90;;;;;;5078269;28;20423;-76
2021/11/02 13:58:50;;;;;;;13.13;6.57;;;13.10;99.90;;;;;;5074992;28;20051;-77
2021/11/02 14:01:49;;;;;;;22.42;10.43;;;13.10;99.90;;;;;;5065891;28;20029;-77
2021/11/02 14:04:39;;;;;;;11.55;6.55;;;12.90;99.90;;;;;;5065659;28;20108;-78
2021/11/02 14:07:17;;;;;;;11.68;5.85;;;12.80;99.90;;;;;;5065886;28;20029;-79
2021/11/02 14:10:00;;;;;;;14.75;7.28;;;12.80;99.90;;;;;;5064110;28;20035;-78
2021/11/02 14:12:53;;;;;;;22.80;10.32;;;13.00;99.90;;;;;;5063898;28;20032;-76
2021/11/02 14:15:30;;;;;;;22.35;9.93;;;13.40;99.90;;;;;;5064770;28;20021;-78
2021/11/02 14:18:09;;;;;;;14.25;7.65;;;13.80;99.90;;;;;;5065539;28;20060;-79
2021/11/02 14:20:54;;;;;;;20.60;7.30;;;14.00;99.90;;;;;;5065793;28;20037;-77
2021/11/02 14:23:38;;;;;;;21.25;9.07;;;14.20;99.90;;;;;;5065592;28;20028;-78
2021/11/02 14:26:26;;;;;;;15.82;7.93;;;14.30;99.90;;;;;;5064346;28;20076;-77
2021/11/02 14:28:59;;;;;;;17.70;6.82;;;14.30;99.90;;;;;;5064255;28;20048;-76
2021/11/02 14:31:52;;;;;;;10.67;6.23;;;14.30;99.90;;;;;;5064953;28;20033;-78
2021/11/02 14:34:27;;;;;;;11.90;5.57;;;14.40;99.90;;;;;;5063077;28;20286;-77
2021/11/02 14:37:09;;;;;;;11.88;5.90;;;14.30;99.90;;;;;;5072365;28;20029;-78
2021/11/02 14:39:55;;;;;;;12.55;5.60;;;14.30;99.90;;;;;;5070905;28;20067;-78
2021/11/02 14:42:41;;;;;;;18.80;6.80;;;14.40;99.90;;;;;;5084701;28;20033;-78
2021/11/02 14:45:09;;;;;;;10.00;5.65;;;14.80;99.90;;;;;;5083557;28;20447;-78
2021/11/02 14:47:36;;;;;;;10.57;5.40;;;15.30;99.90;;;;;;5083651;28;20025;-78
2021/11/02 14:50:35;;;;;;;17.23;6.38;;;15.80;99.90;;;;;;5083502;28;20029;-79
2021/11/02 14:53:29;;;;;;;12.18;5.88;;;16.20;99.90;;;;;;5079495;28;20036;-79
2021/11/02 14:56:17;;;;;;;11.93;5.47;;;16.50;99.90;;;;;;5084921;28;20025;-80
2021/11/02 14:58:49;;;;;;;8.50;5.38;;;16.60;99.90;;;;;;5053396;28;20048;-77
2021/11/02 15:01:35;;;;;;;12.40;5.18;;;16.50;99.90;;;;;;5056934;28;20060;-79
2021/11/02 15:04:12;;;;;;;11.13;5.32;;;16.40;99.90;;;;;;5074946;28;20028;-78
2021/11/02 15:06:42;;;;;;;7.03;4.95;;;16.10;99.90;;;;;;5064851;28;20033;-79
2021/11/02 15:09:14;;;;;;;12.02;5.80;;;15.70;99.90;;;;;;5064924;28;20032;-78
2021/11/02 15:11:41;;;;;;;9.80;4.95;;;15.20;99.90;;;;;;5063673;28;20021;-76
2021/11/02 15:14:25;;;;;;;13.20;6.28;;;14.80;99.90;;;;;;5065429;28;20037;-79
2021/11/02 15:16:56;;;;;;;10.50;4.95;;;14.40;99.90;;;;;;5065100;28;20043;-79
2021/11/02 15:19:26;;;;;;;11.73;6.38;;;14.10;99.90;;;;;;5064373;28;20063;-77
2021/11/02 15:22:10;;;;;;;11.38;5.28;;;13.80;99.90;;;;;;5065906;28;20052;-78
2021/11/02 15:24:42;;;;;;;12.00;5.83;;;13.50;99.90;;;;;;5064889;28;20032;-77
2021/11/02 15:27:20;;;;;;;16.20;6.03;;;13.20;99.90;;;;;;5063401;28;20049;-77
2021/11/02 15:29:48;;;;;;;11.57;6.22;;;13.00;99.90;;;;;;5063272;28;20075;-79
2021/11/02 15:32:16;;;;;;;13.90;5.53;;;12.80;99.90;;;;;;5064802;28;20041;-78
2021/11/02 15:34:54;;;;;;;19.52;5.82;;;12.60;99.90;;;;;;5063422;28;20025;-78
2021/11/02 15:37:26;;;;;;;12.35;6.30;;;12.40;99.90;;;;;;5062973;28;20021;-78
2021/11/02 15:39:55;;;;;;;15.65;6.35;;;12.20;99.90;;;;;;5062776;28;20036;-78
2021/11/02 15:42:33;;;;;;;20.75;7.60;;;12.00;99.90;;;;;;5063221;28;20482;-78
2021/11/02 15:45:10;;;;;;;12.95;5.80;;;11.90;99.90;;;;;;5064072;28;20051;-78
2021/11/02 15:47:49;;;;;;;9.65;5.50;;;11.70;99.90;;;;;;5045170;28;20037;-78
2021/11/02 15:50:23;;;;;;;19.65;6.38;;;11.60;99.90;;;;;;5046782;28;20039;-80
2021/11/02 15:52:49;;;;;;;11.93;6.85;;;11.50;99.90;;;;;;5040023;28;20057;-79
2021/11/02 15:55:23;;;;;;;12.95;6.53;;;11.30;99.90;;;;;;5043052;28;20037;-77
2021/11/02 15:57:55;;;;;;;14.85;6.38;;;11.30;99.90;;;;;;5058219;28;20032;-78
2021/11/02 16:00:31;;;;;;;14.80;6.88;;;11.20;99.90;;;;;;5065223;28;20371;-79
2021/11/02 16:02:58;;;;;;;14.65;6.97;;;11.10;99.90;;;;;;5065215;28;20091;-77
2021/11/02 16:05:26;;;;;;;16.73;7.28;;;11.00;99.90;;;;;;5027137;28;20470;-79
2021/11/02 16:07:56;;;;;;;14.32;7.40;;;10.90;99.90;;;;;;5042753;28;20029;-79
2021/11/02 16:10:25;;;;;;;14.30;6.78;;;10.90;99.90;;;;;;5056815;28;20356;-77
2021/11/02 16:12:51;;;;;;;21.00;6.55;;;10.90;99.90;;;;;;5068032;28;20021;-80
2021/11/02 16:15:21;;;;;;;12.73;7.20;;;10.80;99.90;;;;;;5060891;28;20029;-80
2021/11/02 16:17:51;;;;;;;15.25;7.25;;;10.80;99.90;;;;;;5041336;28;20045;-79
2021/11/02 16:20:19;;;;;;;10.40;6.45;;;10.80;99.90;;;;;;5043806;28;20406;-80
2021/11/02 16:22:54;;;;;;;18.27;8.27;;;10.80;99.90;;;;;;5047883;28;20077;-80
2021/11/02 16:25:20;;;;;;;15.55;7.80;;;10.80;99.90;;;;;;5046334;28;20448;-79
2021/11/02 16:28:02;;;;;;;12.75;6.70;;;10.80;99.90;;;;;;5045730;28;20049;-79
2021/11/02 16:30:50;;;;;;;11.98;6.28;;;10.80;99.90;;;;;;5047694;28;20034;-78
2021/11/02 16:33:18;;;;;;;17.42;7.95;;;10.80;99.90;;;;;;5062985;28;20037;-80
2021/11/02 16:35:48;;;;;;;17.30;7.70;;;10.80;99.90;;;;;;5066030;28;20449;-80
2021/11/02 16:38:26;;;;;;;13.90;7.88;;;10.70;99.90;;;;;;5066350;28;20060;-80
2021/11/02 16:41:03;;;;;;;18.23;9.68;;;10.70;99.90;;;;;;5060716;28;20093;-79
2021/11/02 16:43:30;;;;;;;16.83;8.32;;;10.70;99.90;;;;;;5062537;28;20033;-78
2021/11/02 16:45:59;;;;;;;22.73;8.57;;;10.70;99.90;;;;;;5065908;28;20025;-82
2021/11/02 16:48:44;;;;;;;16.90;8.40;;;10.70;99.90;;;;;;5047837;28;20072;-78
2021/11/02 16:51:16;;;;;;;20.70;8.80;;;10.80;99.90;;;;;;5036854;28;20037;-80
2021/11/02 16:53:45;;;;;;;15.77;8.35;;;10.80;99.90;;;;;;5045864;28;20037;-80
2021/11/02 16:56:25;;;;;;;26.08;7.43;;;10.80;99.90;;;;;;5047134;28;20437;-80
2021/11/02 16:58:54;;;;;;;19.73;8.27;;;10.80;99.90;;;;;;5033631;28;20034;-79
2021/11/02 17:01:25;;;;;;;20.58;9.07;;;10.80;99.90;;;;;;5036996;28;20030;-80
2021/11/02 17:03:53;;;;;;;16.42;8.15;;;10.80;99.90;;;;;;5041107;28;20482;-80
2021/11/02 17:06:23;;;;;;;14.57;7.20;;;10.80;99.90;;;;;;5032852;28;20022;-80
2021/11/02 17:08:57;;;;;;;26.77;8.50;;;10.70;99.90;;;;;;5043400;28;20030;-78
2021/11/02 17:11:23;;;;;;;24.30;10.25;;;10.70;99.90;;;;;;5044008;28;20022;-79
2021/11/02 17:13:50;;;;;;;28.50;11.20;;;10.70;99.90;;;;;;5029703;28;20105;-81
2021/11/02 17:16:20;;;;;;;20.42;10.23;;;10.70;99.90;;;;;;5053283;28;20026;-80
2021/11/02 17:19:13;;;;;;;24.08;10.32;;;10.60;99.90;;;;;;5045915;28;20033;-81
2021/11/02 17:21:40;;;;;;;22.33;9.30;;;10.50;99.90;;;;;;5047005;28;20080;-81
2021/11/02 17:24:08;;;;;;;18.15;8.52;;;10.50;99.90;;;;;;5046863;28;20029;-81
2021/11/02 17:26:36;;;;;;;15.77;8.77;;;10.40;99.90;;;;;;5046196;28;20472;-80
2021/11/02 17:29:04;;;;;;;18.42;8.70;;;10.40;99.90;;;;;;5044900;28;20045;-80
2021/11/02 17:31:37;;;;;;;17.45;8.27;;;10.30;99.90;;;;;;5045233;28;20028;-79
2021/11/02 17:34:07;;;;;;;17.77;9.00;;;10.30;99.90;;;;;;5047951;28;20033;-80
2021/11/02 17:36:35;;;;;;;15.70;8.48;;;10.30;99.90;;;;;;5042716;28;20060;-78
2021/11/02 17:39:02;;;;;;;16.05;7.45;;;10.20;99.90;;;;;;5033889;28;20105;-78
2021/11/02 17:41:29;;;;;;;18.65;8.45;;;10.10;99.90;;;;;;5029934;28;20044;-79
2021/11/02 17:43:56;;;;;;;20.00;8.05;;;10.10;99.90;;;;;;5026632;28;20022;-78
2021/11/02 17:46:22;;;;;;;15.02;7.45;;;10.10;99.90;;;;;;5026696;28;20022;-79
2021/11/02 17:48:54;;;;;;;16.08;7.75;;;9.90;99.90;;;;;;5037804;28;20116;-80
2021/11/02 17:51:21;;;;;;;25.25;9.63;;;9.90;99.90;;;;;;5046343;28;20151;-79
2021/11/02 17:53:47;;;;;;;14.00;7.82;;;9.90;99.90;;;;;;5046083;28;20108;-79
2021/11/02 17:56:13;;;;;;;18.17;8.43;;;9.80;99.90;;;;;;5043739;28;20057;-80
2021/11/02 17:58:42;;;;;;;14.15;7.80;;;9.80;99.90;;;;;;5033312;28;20038;-80
2021/11/02 18:01:11;;;;;;;16.20;7.85;;;9.70;99.90;;;;;;5033952;28;20428;-81
2021/11/02 18:03:40;;;;;;;15.77;7.15;;;9.60;99.90;;;;;;5031729;28;20022;-79
2021/11/02 18:06:08;;;;;;;16.65;8.13;;;9.60;99.90;;;;;;5023184;28;20038;-80
2021/11/02 18:08:39;;;;;;;20.63;8.40;;;9.50;99.90;;;;;;5043344;28;20057;-79
2021/11/02 18:11:06;;;;;;;14.57;7.57;;;9.50;99.90;;;;;;5038090;28;20033;-80
2021/11/02 18:13:33;;;;;;;21.63;8.77;;;9.40;99.90;;;;;;5029909;28;20037;-78